Time;durP1;ratioP1;P1;durP2;ratioP2;P2;SDS_P1;SDS_P2;PMS_P1;PMS_P2;Temp;Humidity;BMP_temperature;BMP_pressure;BME280_temperature;BME280_humidity;BME280_pressure;Samples;Min_cycle;Max_cycle;Signal;HPM_P1;HPM_P2
2021/08/22 00:01:50;;;;;;;43.13;19.73;;;;;;;16.80;100.00;101506.44;5216301;28;20061;-82
2021/08/22 00:04:21;;;;;;;40.42;20.55;;;;;;;16.76;100.00;101505.16;5219965;28;20029;-81
2021/08/22 00:06:51;;;;;;;47.58;20.42;;;;;;;16.70;100.00;101503.16;5214894;28;20505;-82
2021/08/22 00:09:22;;;;;;;51.00;23.13;;;;;;;16.67;100.00;101492.72;5204660;28;20124;-82
2021/08/22 00:11:52;;;;;;;52.60;24.20;;;;;;;16.67;100.00;101498.16;5225128;28;20056;-82
2021/08/22 00:14:23;;;;;;;60.50;24.73;;;;;;;16.65;100.00;101502.06;5206285;28;20392;-82
2021/08/22 00:16:53;;;;;;;57.92;25.35;;;;;;;16.66;100.00;101510.00;5216188;28;20468;-82
2021/08/22 00:19:24;;;;;;;71.72;27.95;;;;;;;16.69;100.00;101500.66;5217544;28;20085;-82
2021/08/22 00:21:54;;;;;;;64.30;26.90;;;;;;;16.70;100.00;101494.22;5203813;28;20494;-81
2021/08/22 00:24:24;;;;;;;78.70;29.23;;;;;;;16.65;100.00;101494.78;5224534;28;20099;-82
2021/08/22 00:26:55;;;;;;;90.35;33.25;;;;;;;16.68;100.00;101501.69;5224455;28;20024;-82
2021/08/22 00:29:25;;;;;;;89.20;32.97;;;;;;;16.61;100.00;101484.50;5215653;28;20048;-81
2021/08/22 00:31:56;;;;;;;92.78;32.53;;;;;;;16.55;100.00;101496.94;5219709;28;20071;-81
2021/08/22 00:34:27;;;;;;;88.20;32.35;;;;;;;16.53;100.00;101493.59;5214900;28;20709;-82
2021/08/22 00:36:57;;;;;;;89.50;32.85;;;;;;;16.51;100.00;101495.63;5206882;28;20021;-85
2021/08/22 00:39:29;;;;;;;95.75;34.50;;;;;;;16.50;100.00;101497.50;5213560;28;20496;-81
2021/08/22 00:42:00;;;;;;;101.50;32.70;;;;;;;16.47;100.00;101497.91;5222028;28;20394;-82
2021/08/22 00:44:31;;;;;;;107.07;35.47;;;;;;;16.44;100.00;101497.44;5223770;28;20432;-81
2021/08/22 00:47:02;;;;;;;105.07;32.45;;;;;;;16.45;100.00;101496.41;5217206;28;20033;-81
2021/08/22 00:49:32;;;;;;;94.65;33.95;;;;;;;16.37;100.00;101489.25;5199552;28;20032;-82
2021/08/22 00:52:05;;;;;;;123.80;37.53;;;;;;;16.34;100.00;101491.47;5223819;28;20492;-81
2021/08/22 00:54:40;;;;;;;105.93;35.92;;;;;;;16.23;100.00;101499.03;5223402;28;20035;-82
2021/08/22 00:57:12;;;;;;;116.95;37.13;;;;;;;16.24;100.00;101489.06;5223858;28;20072;-81
2021/08/22 00:59:43;;;;;;;108.10;35.60;;;;;;;16.22;100.00;101489.25;5205505;28;20025;-81
2021/08/22 01:02:24;;;;;;;119.25;37.72;;;;;;;16.18;100.00;101487.94;5224143;28;20385;-82
2021/08/22 01:05:09;;;;;;;117.35;37.17;;;;;;;16.12;100.00;101487.88;5220789;28;20033;-82
2021/08/22 01:07:55;;;;;;;110.72;36.72;;;;;;;16.12;100.00;101488.69;5223557;28;20397;-82
2021/08/22 01:10:27;;;;;;;104.85;36.33;;;;;;;16.08;100.00;101487.38;5215778;28;20089;-82
2021/08/22 01:13:04;;;;;;;114.22;36.25;;;;;;;16.01;100.00;101481.91;5211469;28;20033;-82
2021/08/22 01:15:37;;;;;;;113.10;38.03;;;;;;;16.04;100.00;101486.91;5223969;28;20028;-82
2021/08/22 01:18:13;;;;;;;113.78;38.75;;;;;;;16.04;100.00;101486.91;5215176;28;20030;-82
2021/08/22 01:21:03;;;;;;;116.97;38.08;;;;;;;16.03;100.00;101485.25;5206663;28;20024;-81
2021/08/22 01:23:40;;;;;;;102.82;35.65;;;;;;;16.15;100.00;101495.59;5223370;28;20029;-82
2021/08/22 01:26:12;;;;;;;113.00;38.60;;;;;;;16.19;100.00;101486.06;5223137;28;20043;-82
2021/08/22 01:28:44;;;;;;;110.32;37.40;;;;;;;16.19;100.00;101486.06;5207865;28;20382;-82
2021/08/22 01:31:18;;;;;;;107.53;37.78;;;;;;;16.19;100.00;101480.66;5202849;28;20022;-81
2021/08/22 01:33:51;;;;;;;108.53;38.13;;;;;;;16.14;100.00;101485.78;5216542;28;20356;-81
2021/08/22 01:36:23;;;;;;;100.68;37.92;;;;;;;16.16;100.00;101473.75;5219339;28;20028;-82
2021/08/22 01:38:54;;;;;;;129.60;40.38;;;;;;;16.18;100.00;101479.81;5221949;28;20025;-82
2021/08/22 01:41:26;;;;;;;109.97;37.22;;;;;;;16.19;100.00;101473.38;5220360;28;20063;-81
2021/08/22 01:43:57;;;;;;;103.05;37.85;;;;;;;16.26;100.00;101471.59;5227906;28;20025;-83
2021/08/22 01:46:32;;;;;;;108.05;36.75;;;;;;;16.20;100.00;101476.91;5225317;28;20106;-82
2021/08/22 01:49:05;;;;;;;96.22;34.40;;;;;;;16.13;100.00;101470.59;5207727;28;20037;-82
2021/08/22 01:51:37;;;;;;;82.45;32.55;;;;;;;16.05;100.00;101471.50;5224627;28;20509;-82
2021/08/22 01:54:10;;;;;;;94.10;32.63;;;;;;;16.00;100.00;101474.78;5227842;28;20033;-82
2021/08/22 01:56:41;;;;;;;106.65;34.47;;;;;;;15.93;100.00;101473.00;5214026;28;20021;-81
2021/08/22 01:59:12;;;;;;;82.88;32.20;;;;;;;15.83;100.00;101475.16;5214028;28;20029;-82
2021/08/22 02:01:43;;;;;;;86.03;32.42;;;;;;;15.72;100.00;101473.75;5220485;28;20024;-81
2021/08/22 02:04:20;;;;;;;96.60;33.20;;;;;;;15.66;100.00;101474.47;5220242;28;20421;-81
2021/08/22 02:07:02;;;;;;;94.35;33.53;;;;;;;15.61;100.00;101469.56;5216289;28;20048;-81
2021/08/22 02:09:49;;;;;;;97.55;33.70;;;;;;;15.55;100.00;101475.72;5213589;28;20021;-81
2021/08/22 02:12:27;;;;;;;93.53;33.03;;;;;;;15.52;100.00;101468.00;5227485;28;20035;-81
2021/08/22 02:15:07;;;;;;;102.07;35.35;;;;;;;15.57;100.00;101464.75;5227884;28;20029;-81
2021/08/22 02:17:44;;;;;;;110.72;35.90;;;;;;;15.62;100.00;101465.88;5213665;28;20043;-81
2021/08/22 02:20:15;;;;;;;102.88;34.65;;;;;;;15.66;100.00;101469.06;5214423;28;20026;-82
2021/08/22 02:22:46;;;;;;;99.03;34.67;;;;;;;15.71;100.00;101472.03;5205485;28;20025;-81
2021/08/22 02:25:17;;;;;;;106.22;37.25;;;;;;;15.75;100.00;101478.78;5205078;28;20105;-82
2021/08/22 02:27:48;;;;;;;104.47;37.10;;;;;;;15.80;100.00;101479.91;5226203;28;20140;-82
2021/08/22 02:30:18;;;;;;;102.00;36.28;;;;;;;15.90;100.00;101485.03;5224962;28;20025;-82
2021/08/22 02:32:49;;;;;;;102.55;36.42;;;;;;;15.87;100.00;101488.13;5215096;28;20025;-82
2021/08/22 02:35:20;;;;;;;102.93;36.55;;;;;;;15.85;100.00;101481.22;5227113;28;20370;-81
2021/08/22 02:37:50;;;;;;;103.72;34.42;;;;;;;15.86;100.00;101497.25;5217545;28;20037;-81
2021/08/22 02:40:21;;;;;;;93.47;33.88;;;;;;;15.86;100.00;101483.72;5224199;28;20032;-82
2021/08/22 02:42:51;;;;;;;98.13;34.08;;;;;;;15.86;100.00;101483.72;5218791;28;20491;-82
2021/08/22 02:45:22;;;;;;;92.15;31.67;;;;;;;15.87;100.00;101490.00;5223504;28;20029;-82
2021/08/22 02:47:57;;;;;;;88.68;32.33;;;;;;;15.87;100.00;101493.53;5200551;28;20063;-81
2021/08/22 02:50:28;;;;;;;83.72;32.83;;;;;;;15.91;100.00;101494.81;5234647;28;20039;-82
2021/08/22 02:52:59;;;;;;;85.80;31.73;;;;;;;15.89;100.00;101490.63;5237191;28;20475;-82
2021/08/22 02:55:29;;;;;;;77.38;30.42;;;;;;;15.97;100.00;101485.16;5229059;28;20027;-82
2021/08/22 02:58:00;;;;;;;83.88;31.33;;;;;;;15.98;100.00;101484.13;5216494;28;20056;-83
2021/08/22 03:00:30;;;;;;;70.40;30.15;;;;;;;15.98;100.00;101487.66;5238173;28;20032;-83
2021/08/22 03:03:01;;;;;;;76.65;29.00;;;;;;;15.97;100.00;101485.16;5236365;28;20022;-83
2021/08/22 03:05:32;;;;;;;77.97;29.15;;;;;;;15.98;100.00;101487.66;5238797;28;20075;-84
2021/08/22 03:08:03;;;;;;;75.75;29.90;;;;;;;15.99;100.00;101486.63;5231997;28;20029;-82
2021/08/22 03:10:34;;;;;;;78.88;30.45;;;;;;;15.99;100.00;101483.94;5231163;28;20021;-84
2021/08/22 03:13:04;;;;;;;85.55;31.60;;;;;;;15.97;100.00;101485.16;5226332;28;20043;-84
2021/08/22 03:15:35;;;;;;;79.35;30.35;;;;;;;15.97;100.00;101491.41;5239675;28;20063;-83
2021/08/22 03:18:06;;;;;;;74.07;30.20;;;;;;;15.98;100.00;101490.38;5221959;28;20036;-84
2021/08/22 03:20:37;;;;;;;73.68;28.50;;;;;;;15.99;100.00;101488.50;5225271;28;20025;-83
2021/08/22 03:23:07;;;;;;;70.57;29.15;;;;;;;16.02;100.00;101482.72;5239564;28;20468;-83
2021/08/22 03:25:38;;;;;;;68.35;27.00;;;;;;;16.03;100.00;101487.94;5235855;28;20040;-84
2021/08/22 03:28:08;;;;;;;76.75;30.00;;;;;;;16.02;100.00;101483.56;5229528;28;20048;-83
2021/08/22 03:30:39;;;;;;;71.63;28.45;;;;;;;16.02;100.00;101491.69;5225561;28;20021;-83
2021/08/22 03:33:09;;;;;;;70.13;28.77;;;;;;;16.03;100.00;101489.81;5240383;28;20130;-84
2021/08/22 03:35:40;;;;;;;74.82;29.20;;;;;;;16.02;100.00;101493.56;5222230;28;20040;-83
2021/08/22 03:38:12;;;;;;;59.00;27.27;;;;;;;16.01;100.00;101486.44;5239873;28;20021;-83
2021/08/22 03:40:43;;;;;;;70.50;29.23;;;;;;;16.03;100.00;101485.25;5233338;28;20044;-84
2021/08/22 03:43:13;;;;;;;67.20;29.00;;;;;;;16.01;100.00;101487.31;5224232;28;20349;-83
2021/08/22 03:45:44;;;;;;;75.25;30.35;;;;;;;16.01;100.00;101492.72;5227442;28;20104;-83
2021/08/22 03:48:14;;;;;;;70.20;28.23;;;;;;;16.01;100.00;101489.13;5220773;28;20048;-83
2021/08/22 03:50:45;;;;;;;65.32;26.67;;;;;;;16.00;100.00;101501.00;5221449;28;20360;-83
2021/08/22 03:53:15;;;;;;;67.82;27.60;;;;;;;15.98;100.00;101498.50;5238364;28;20070;-82
2021/08/22 03:55:46;;;;;;;63.72;28.42;;;;;;;16.00;100.00;101495.59;5236475;28;20021;-83
2021/08/22 03:58:16;;;;;;;80.53;30.77;;;;;;;16.02;100.00;101493.56;5213510;28;20017;-82
2021/08/22 04:00:47;;;;;;;74.65;30.10;;;;;;;16.03;100.00;101492.53;5216365;28;20026;-83
2021/08/22 04:03:17;;;;;;;66.55;29.00;;;;;;;16.03;100.00;101495.22;5235379;28;20025;-83
2021/08/22 04:05:48;;;;;;;71.75;30.45;;;;;;;16.07;100.00;101498.41;5220134;28;20041;-83
2021/08/22 04:08:24;;;;;;;68.97;29.65;;;;;;;16.06;100.00;101497.53;5237780;28;20047;-83
2021/08/22 04:10:54;;;;;;;81.43;30.55;;;;;;;16.07;100.00;101495.69;5236978;28;20028;-83
2021/08/22 04:13:25;;;;;;;65.38;28.05;;;;;;;16.09;100.00;101486.34;5237038;28;20028;-83
2021/08/22 04:15:55;;;;;;;73.68;29.90;;;;;;;16.10;100.00;101498.00;5213325;28;20074;-82
2021/08/22 04:18:25;;;;;;;75.63;29.08;;;;;;;16.10;100.00;101496.16;5226854;28;20044;-82
2021/08/22 04:20:56;;;;;;;59.38;27.00;;;;;;;16.11;100.00;101496.97;5212899;28;20059;-83
2021/08/22 04:23:27;;;;;;;59.90;26.85;;;;;;;16.11;100.00;101497.81;5207478;28;20013;-82
2021/08/22 04:25:58;;;;;;;60.08;26.85;;;;;;;16.09;100.00;101497.19;5226201;28;20096;-82
2021/08/22 04:28:29;;;;;;;62.03;25.73;;;;;;;16.11;100.00;101495.13;5225760;28;20544;-82
2021/08/22 04:30:59;;;;;;;58.13;25.05;;;;;;;16.18;100.00;101487.09;5213738;28;20032;-82
2021/08/22 04:33:29;;;;;;;54.85;25.40;;;;;;;16.14;100.00;101500.16;5225329;28;20031;-82
2021/08/22 04:36:00;;;;;;;50.60;23.35;;;;;;;16.16;100.00;101491.84;5224601;28;20107;-82
2021/08/22 04:38:30;;;;;;;52.05;24.10;;;;;;;16.10;100.00;101498.84;5224569;28;20555;-82
2021/08/22 04:41:01;;;;;;;52.03;23.35;;;;;;;16.06;100.00;101494.84;5225914;28;20410;-83
2021/08/22 04:43:31;;;;;;;53.15;25.33;;;;;;;16.11;100.00;101496.97;5236714;28;20048;-84
2021/08/22 04:46:02;;;;;;;51.80;24.40;;;;;;;16.11;100.00;101494.28;5237488;28;20029;-83
2021/08/22 04:48:32;;;;;;;52.75;24.23;;;;;;;16.14;100.00;101494.75;5236461;28;20028;-82
2021/08/22 04:51:03;;;;;;;50.28;24.75;;;;;;;16.12;100.00;101496.81;5235438;28;20498;-81
2021/08/22 04:53:34;;;;;;;42.65;22.52;;;;;;;16.18;100.00;101497.94;5207860;28;20021;-83
2021/08/22 04:56:07;;;;;;;42.85;22.67;;;;;;;16.26;100.00;101500.53;5207203;28;20079;-83
2021/08/22 04:58:38;;;;;;;43.42;22.17;;;;;;;16.25;100.00;101498.84;5224747;28;20360;-82
2021/08/22 05:01:08;;;;;;;44.33;21.63;;;;;;;16.23;100.00;101499.03;5224045;28;20036;-82
2021/08/22 05:03:39;;;;;;;46.38;19.65;;;;;;;16.25;100.00;101502.41;5224341;28;20029;-82
2021/08/22 05:06:09;;;;;;;40.13;20.38;;;;;;;16.29;100.00;101497.44;5210778;28;20170;-83
2021/08/22 05:08:40;;;;;;;37.42;17.95;;;;;;;16.27;100.00;101492.25;5205969;28;20094;-84
2021/08/22 05:11:10;;;;;;;34.13;17.15;;;;;;;16.30;100.00;101502.66;5225366;28;20040;-83
2021/08/22 05:13:41;;;;;;;39.42;19.05;;;;;;;16.30;100.00;101499.13;5197127;28;20052;-82
2021/08/22 05:16:11;;;;;;;36.45;17.80;;;;;;;16.28;100.00;101493.91;5206785;28;20028;-83
2021/08/22 05:18:42;;;;;;;34.33;15.88;;;;;;;16.29;100.00;101501.00;5227498;28;20120;-83
2021/08/22 05:21:12;;;;;;;33.83;16.02;;;;;;;16.27;100.00;101499.53;5175801;28;20025;-83
2021/08/22 05:23:43;;;;;;;35.33;15.93;;;;;;;16.31;100.00;101498.97;5223064;28;20112;-82
2021/08/22 05:26:13;;;;;;;25.67;15.43;;;;;;;16.36;100.00;101505.66;5223168;28;20513;-82
2021/08/22 05:28:44;;;;;;;34.97;16.02;;;;;;;16.31;100.00;101507.09;5222400;28;20025;-82
2021/08/22 05:31:14;;;;;;;25.73;13.68;;;;;;;16.35;100.00;101501.28;5222340;28;20028;-82
2021/08/22 05:33:45;;;;;;;31.60;13.93;;;;;;;16.36;100.00;101503.78;5203850;28;20020;-83
2021/08/22 05:36:18;;;;;;;24.38;13.18;;;;;;;16.36;100.00;101503.78;5223523;28;20048;-82
2021/08/22 05:38:50;;;;;;;26.85;13.10;;;;;;;16.42;100.00;101499.50;5205980;28;20032;-82
2021/08/22 05:41:20;;;;;;;20.08;12.55;;;;;;;16.42;100.00;101502.22;5219375;28;20402;-82
2021/08/22 05:43:51;;;;;;;24.45;12.23;;;;;;;16.44;100.00;101500.16;5224880;28;20078;-81
2021/08/22 05:46:21;;;;;;;22.48;11.50;;;;;;;16.45;100.00;101501.81;5213464;28;20383;-83
2021/08/22 05:48:52;;;;;;;23.13;11.18;;;;;;;16.43;100.00;101506.59;5202836;28;20029;-81
2021/08/22 05:51:22;;;;;;;25.20;10.40;;;;;;;16.48;100.00;101506.88;5222829;28;20071;-81
2021/08/22 05:53:53;;;;;;;20.15;9.05;;;;;;;16.47;100.00;101513.31;5225592;28;20025;-81
2021/08/22 05:56:23;;;;;;;17.25;8.85;;;;;;;16.56;100.00;101507.59;5225668;28;20025;-80
2021/08/22 05:58:55;;;;;;;17.48;9.38;;;;;;;17.09;100.00;101507.38;5225561;28;20094;-81
2021/08/22 06:01:25;;;;;;;18.05;8.50;;;;;;;17.66;100.00;101506.44;5225777;28;20462;-81
2021/08/22 06:03:56;;;;;;;11.40;7.70;;;;;;;18.10;100.00;101499.88;5225952;28;20500;-81
2021/08/22 06:06:26;;;;;;;15.15;7.00;;;;;;;18.00;100.00;101493.97;5217805;28;20049;-85
2021/08/22 06:08:57;;;;;;;12.70;7.13;;;;;;;17.78;100.00;101507.63;5215782;28;20106;-84
2021/08/22 06:11:27;;;;;;;13.98;6.65;;;;;;;17.92;100.00;101507.69;5221543;28;20151;-85
2021/08/22 06:13:58;;;;;;;17.92;6.55;;;;;;;17.88;100.00;101514.56;5224832;28;20106;-85
2021/08/22 06:16:28;;;;;;;16.77;6.60;;;;;;;17.74;100.00;101509.03;5226880;28;20032;-83
2021/08/22 06:18:59;;;;;;;15.05;6.88;;;;;;;17.61;100.00;101519.75;5225891;28;20040;-82
2021/08/22 06:21:29;;;;;;;16.42;6.18;;;;;;;17.56;100.00;101512.19;5227140;28;20088;-82
2021/08/22 06:24:00;;;;;;;10.70;5.03;;;;;;;17.50;100.00;101525.72;5231666;28;20053;-83
2021/08/22 06:26:30;;;;;;;12.65;5.22;;;;;;;17.45;100.00;101523.56;5232650;28;20021;-82
2021/08/22 06:29:01;;;;;;;8.77;4.68;;;;;;;17.40;100.00;101525.19;5211593;28;20084;-82
2021/08/22 06:31:31;;;;;;;10.30;4.65;;;;;;;17.39;100.00;101529.78;5216781;28;20025;-81
2021/08/22 06:34:02;;;;;;;12.43;5.55;;;;;;;17.40;100.00;101527.91;5221657;28;20104;-83
2021/08/22 06:36:32;;;;;;;9.98;5.10;;;;;;;17.36;100.00;101538.31;5213995;28;20419;-80
2021/08/22 06:39:03;;;;;;;10.90;5.15;;;;;;;17.42;100.00;101531.25;5227993;28;20021;-83
2021/08/22 06:41:34;;;;;;;13.27;5.40;;;;;;;17.43;100.00;101541.09;5223314;28;20255;-84
2021/08/22 06:44:05;;;;;;;13.30;5.22;;;;;;;17.53;100.00;101533.47;5214083;28;20086;-82
2021/08/22 06:46:35;;;;;;;12.95;5.38;;;;;;;17.60;100.00;101540.63;5231232;28;20562;-83
2021/08/22 06:49:06;;;;;;;11.98;4.72;;;;;;;17.70;100.00;101543.00;5229381;28;20033;-84
2021/08/22 06:51:37;;;;;;;11.25;5.03;;;;;;;17.72;100.00;101545.50;5215914;28;20029;-82
2021/08/22 06:54:07;;;;;;;13.13;5.75;;;;;;;17.80;100.00;101543.53;5200462;28;20061;-82
2021/08/22 06:56:38;;;;;;;13.85;5.35;;;;;;;17.85;100.00;101540.22;5193767;28;20033;-83
2021/08/22 06:59:09;;;;;;;9.60;4.70;;;;;;;17.94;100.00;101538.19;5224058;28;20060;-82
2021/08/22 07:01:39;;;;;;;10.55;4.53;;;;;;;18.00;100.00;101540.13;5217109;28;20025;-83
2021/08/22 07:04:12;;;;;;;15.23;5.50;;;;;;;17.98;100.00;101544.91;5217580;28;20053;-81
2021/08/22 07:06:43;;;;;;;7.25;4.80;;;;;;;18.05;100.00;101543.06;5224404;28;20025;-83
2021/08/22 07:09:13;;;;;;;12.27;5.30;;;;;;;18.04;100.00;101549.56;5223706;28;20600;-82
2021/08/22 07:11:44;;;;;;;12.40;5.15;;;;;;;18.06;100.00;101542.88;5224287;28;20025;-82
2021/08/22 07:14:15;;;;;;;13.27;5.20;;;;;;;18.10;100.00;101548.75;5220379;28;20029;-83
2021/08/22 07:16:45;;;;;;;10.82;4.97;;;;;;;18.09;100.00;101556.06;5203270;28;20104;-83
2021/08/22 07:19:15;;;;;;;11.80;5.13;;;;;;;18.05;100.00;101556.66;5221173;28;20025;-82
2021/08/22 07:21:46;;;;;;;14.90;5.00;;;;;;;18.04;100.00;101555.81;5211192;28;20447;-85
2021/08/22 07:24:16;;;;;;;14.75;5.38;;;;;;;18.05;100.00;101559.38;5215831;28;20039;-84
2021/08/22 07:26:47;;;;;;;14.38;5.13;;;;;;;17.98;100.00;101556.63;5185535;28;20116;-83
2021/08/22 07:29:17;;;;;;;17.67;6.93;;;;;;;18.05;100.00;101559.38;5223247;28;20175;-84
2021/08/22 07:31:48;;;;;;;14.68;5.05;;;;;;;18.06;100.00;101555.59;5205180;28;20032;-83
2021/08/22 07:34:18;;;;;;;14.70;5.28;;;;;;;18.05;100.00;101556.66;5225497;28;20059;-83
2021/08/22 07:36:49;;;;;;;19.55;5.55;;;;;;;18.08;100.00;101553.56;5227077;28;20715;-83
2021/08/22 07:39:20;;;;;;;14.52;5.55;;;;;;;18.09;100.00;101561.50;5210925;28;20532;-83
2021/08/22 07:41:50;;;;;;;16.35;5.50;;;;;;;18.27;100.00;101562.84;5231230;28;20028;-82
2021/08/22 07:44:21;;;;;;;12.43;5.18;;;;;;;18.29;100.00;101561.63;5194271;28;20040;-82
2021/08/22 07:46:52;;;;;;;11.40;5.57;;;;;;;18.29;100.00;101564.34;5227124;28;20029;-82
2021/08/22 07:49:22;;;;;;;16.35;5.80;;;;;;;18.35;100.00;101560.81;5213648;28;20044;-82
2021/08/22 07:51:52;;;;;;;13.02;5.00;;;;;;;18.31;100.00;101562.25;5225710;28;20033;-83
2021/08/22 07:54:23;;;;;;;11.55;5.10;;;;;;;18.53;100.00;101567.59;5226483;28;20091;-84
2021/08/22 07:56:53;;;;;;;14.82;5.53;;;;;;;18.59;100.00;101574.94;5226361;28;20067;-83
2021/08/22 07:59:24;;;;;;;13.40;5.47;;;;;;;18.77;100.00;101571.69;5226071;28;20078;-81
2021/08/22 08:01:56;;;;;;;12.30;5.20;;;;;;;18.86;100.00;101571.31;5213825;28;20124;-82
2021/08/22 08:04:27;;;;;;;13.50;4.78;;;;;;;19.19;100.00;101575.22;5197143;28;20310;-82
2021/08/22 08:06:57;;;;;;;13.50;5.57;;;;;;;19.65;100.00;101567.16;5212914;28;20032;-83
2021/08/22 08:09:28;;;;;;;12.77;4.78;;;;;;;19.86;100.00;101566.94;5223672;28;20036;-82
2021/08/22 08:11:58;;;;;;;14.93;4.18;;;;;;;20.26;100.00;101566.88;5212779;28;20033;-83
2021/08/22 08:14:29;;;;;;;12.45;4.35;;;;;;;20.53;100.00;101564.09;5221657;28;20047;-82
2021/08/22 08:16:59;;;;;;;27.60;4.88;;;;;;;21.04;100.00;101558.66;5222573;28;20028;-84
2021/08/22 08:19:30;;;;;;;11.95;4.45;;;;;;;21.07;100.00;101566.38;5221863;28;20108;-83
2021/08/22 08:22:01;;;;;;;13.95;4.60;;;;;;;20.64;100.00;101558.00;5221931;28;20479;-83
2021/08/22 08:24:31;;;;;;;13.45;4.57;;;;;;;20.80;100.00;101567.59;5221649;28;20021;-83
2021/08/22 08:27:02;;;;;;;16.70;4.82;;;;;;;20.48;100.00;101558.47;5221703;28;20055;-83
2021/08/22 08:29:33;;;;;;;11.73;4.25;;;;;;;20.17;100.00;101558.09;5221185;28;20040;-83
2021/08/22 08:32:04;;;;;;;13.48;4.18;;;;;;;20.24;100.00;101562.72;5222245;28;20092;-82
2021/08/22 08:34:34;;;;;;;10.95;4.40;;;;;;;20.14;100.00;101555.81;5209915;28;20037;-83
2021/08/22 08:37:05;;;;;;;16.23;4.55;;;;;;;20.15;100.00;101553.91;5218878;28;20443;-84
2021/08/22 08:39:35;;;;;;;11.98;4.60;;;;;;;20.05;100.00;101561.69;5203376;28;20144;-83
2021/08/22 08:42:17;;;;;;;13.23;4.57;;;;;;;20.03;100.00;101558.31;5222361;28;20098;-83
2021/08/22 08:44:48;;;;;;;9.50;3.75;;;;;;;20.15;100.00;101554.75;5188431;28;20394;-83
2021/08/22 08:47:20;;;;;;;15.85;5.20;;;;;;;19.86;100.00;101557.91;5224724;28;20037;-82
2021/08/22 08:49:57;;;;;;;18.95;4.63;;;;;;;19.59;100.00;101566.09;5224887;28;20033;-84
2021/08/22 08:52:29;;;;;;;10.77;4.72;;;;;;;19.65;100.00;101564.41;5224454;28;20382;-83
2021/08/22 08:55:09;;;;;;;9.55;4.00;;;;;;;19.50;100.00;101566.47;5205670;28;20020;-83
2021/08/22 08:57:40;;;;;;;11.88;4.45;;;;;;;19.60;100.00;101559.59;5224056;28;20370;-83
2021/08/22 09:00:15;;;;;;;9.50;4.03;;;;;;;19.88;100.00;101564.84;5223684;28;20021;-82
2021/08/22 09:02:45;;;;;;;8.23;4.20;;;;;;;20.12;100.00;101562.50;5221335;28;20138;-83
2021/08/22 09:05:33;;;;;;;8.07;3.25;;;;;;;20.33;100.00;101565.00;5196806;28;20101;-83
2021/08/22 09:08:37;;;;;;;8.07;3.72;;;;;;;20.15;100.00;101564.81;5222825;28;20024;-82
2021/08/22 09:11:15;;;;;;;10.57;3.20;;;;;;;19.97;100.00;101562.72;5217975;28;20048;-83
2021/08/22 09:14:10;;;;;;;9.68;3.08;;;;;;;20.00;100.00;101561.47;5206392;28;20033;-83
2021/08/22 09:17:03;;;;;;;6.30;3.00;;;;;;;19.99;100.00;101566.09;5213775;28;20307;-81
2021/08/22 09:19:56;;;;;;;9.63;2.85;;;;;;;19.91;100.00;101561.69;5223299;28;20029;-82
2021/08/22 09:23:04;;;;;;;5.03;2.90;;;;;;;19.57;100.00;101561.84;5223649;28;20031;-83
2021/08/22 09:26:12;;;;;;;8.55;3.13;;;;;;;19.32;100.00;101570.63;5220603;28;20029;-83
2021/08/22 09:29:19;;;;;;;8.50;2.72;;;;;;;19.07;100.00;101573.06;5217948;28;20021;-81
2021/08/22 09:31:56;;;;;;;6.78;3.17;;;;;;;18.88;100.00;101569.25;5223360;28;20036;-81
2021/08/22 09:34:53;;;;;;;7.40;3.22;;;;;;;18.69;100.00;101578.16;5214581;28;20026;-82
2021/08/22 09:37:28;;;;;;;9.23;3.70;;;;;;;18.58;100.00;101565.97;5222761;28;20112;-82
2021/08/22 09:40:36;;;;;;;8.00;3.85;;;;;;;18.65;100.00;101568.69;5205323;28;20040;-81
2021/08/22 09:43:39;;;;;;;6.70;3.25;;;;;;;18.57;100.00;101575.13;5217165;28;20056;-82
2021/08/22 09:46:46;;;;;;;7.20;3.10;;;;;;;18.86;100.00;101570.50;5223204;28;20117;-82
2021/08/22 09:49:46;;;;;;;6.63;3.50;;;;;;;18.74;100.00;101580.28;5214939;28;20108;-83
2021/08/22 09:52:36;;;;;;;9.02;3.03;;;;;;;18.69;100.00;101567.28;5205245;28;20031;-82
2021/08/22 09:55:44;;;;;;;6.78;3.58;;;;;;;18.53;100.00;101575.75;5224920;28;20029;-81
2021/08/22 09:58:50;;;;;;;6.18;3.35;;;;;;;18.44;100.00;101572.38;5198137;28;20045;-84
2021/08/22 10:01:47;;;;;;;7.00;3.10;;;;;;;18.57;100.00;101577.00;5211740;28;20459;-82
2021/08/22 10:04:41;;;;;;;6.32;3.47;;;;;;;18.62;100.00;101567.25;5229183;28;20104;-80
2021/08/22 10:07:31;;;;;;;5.72;3.55;;;;;;;19.06;100.00;101573.28;5229439;28;20044;-82
2021/08/22 10:10:09;;;;;;;7.15;3.65;;;;;;;18.96;100.00;101579.09;5222380;28;20024;-85
2021/08/22 10:12:40;;;;;;;9.00;4.28;;;;;;;18.88;100.00;101577.41;5228335;28;20049;-83
2021/08/22 10:15:11;;;;;;;8.20;4.00;;;;;;;19.14;100.00;101581.25;5201751;28;20112;-80
2021/08/22 10:17:45;;;;;;;13.15;3.88;;;;;;;19.32;100.00;101572.50;5230013;28;20585;-83
2021/08/22 10:20:17;;;;;;;16.83;3.75;;;;;;;19.32;100.00;101576.06;5227888;28;20033;-85
2021/08/22 10:22:49;;;;;;;10.23;3.38;;;;;;;19.81;100.00;101566.72;5197127;28;20028;-81
2021/08/22 10:25:46;;;;;;;7.78;3.60;;;;;;;20.35;100.00;101562.88;5228658;28;20029;-83
2021/08/22 10:28:47;;;;;;;5.20;2.70;;;;;;;20.61;100.00;101556.53;5211526;28;20017;-82
2021/08/22 10:31:49;;;;;;;5.78;2.80;;;;;;;21.25;100.00;101559.38;5201785;28;20055;-80
2021/08/22 10:34:22;;;;;;;5.38;3.08;;;;;;;21.11;100.00;101564.06;5215796;28;20395;-83
2021/08/22 10:36:54;;;;;;;4.95;2.75;;;;;;;21.27;100.00;101566.28;5227850;28;20028;-82
2021/08/22 10:39:25;;;;;;;6.78;2.25;;;;;;;21.44;100.00;101583.00;5219239;28;20025;-82
2021/08/22 10:41:59;;;;;;;3.80;1.95;;;;;;;21.17;100.00;101577.66;5200770;28;20395;-83
2021/08/22 10:44:38;;;;;;;4.78;2.10;;;;;;;21.09;100.00;101582.56;5227272;28;20478;-82
2021/08/22 10:47:11;;;;;;;3.45;2.03;;;;;;;20.76;100.00;101583.53;5226328;28;20036;-82
2021/08/22 10:49:51;;;;;;;3.67;2.35;;;;;;;20.71;100.00;101577.88;5215552;28;20116;-82
2021/08/22 10:52:25;;;;;;;5.18;1.90;;;;;;;20.48;100.00;101574.81;5228947;28;20029;-82
2021/08/22 10:55:05;;;;;;;5.10;2.38;;;;;;;20.44;100.00;101583.41;5223777;28;20033;-82
2021/08/22 11:00:22;;;;;;;4.57;2.33;;;;;;;20.07;100.00;101584.91;5226486;28;20052;-82
2021/08/22 11:02:55;;;;;;;6.85;2.72;;;;;;;20.16;100.00;101585.53;5192748;28;20492;-81
2021/08/22 11:05:27;;;;;;;5.40;2.50;;;;;;;20.43;100.00;101579.00;5190246;28;20403;-82
2021/08/22 11:08:14;;;;;;;6.97;2.50;;;;;;;20.78;100.00;101575.97;5207092;28;20394;-82
2021/08/22 11:10:57;;;;;;;3.75;2.38;;;;;;;21.20;100.00;101579.13;5221061;28;20024;-82
2021/08/22 11:13:30;;;;;;;4.93;2.40;;;;;;;21.28;100.00;101573.38;5227586;28;20029;-81
2021/08/22 11:16:05;;;;;;;5.43;2.80;;;;;;;21.43;100.00;101573.13;5229680;28;20040;-81
2021/08/22 11:18:37;;;;;;;3.17;2.10;;;;;;;21.22;100.00;101560.63;5228784;28;20051;-82
2021/08/22 11:21:08;;;;;;;3.78;2.50;;;;;;;21.01;100.00;101566.44;5217037;28;20386;-81
2021/08/22 11:23:39;;;;;;;5.82;2.72;;;;;;;21.07;100.00;101565.56;5230928;28;20067;-82
2021/08/22 11:26:10;;;;;;;5.63;2.60;;;;;;;21.27;100.00;101560.81;5229923;28;20021;-82
2021/08/22 11:28:41;;;;;;;7.57;3.03;;;;;;;21.52;100.00;101558.16;5225691;28;20021;-82
2021/08/22 11:31:13;;;;;;;5.10;2.83;;;;;;;21.63;100.00;101557.44;5223174;28;20111;-81
2021/08/22 11:33:44;;;;;;;7.68;3.10;;;;;;;21.88;100.00;101553.84;5222584;28;20382;-82
2021/08/22 11:36:14;;;;;;;7.30;2.60;;;;;;;22.15;100.00;101555.31;5222663;28;20040;-82
2021/08/22 11:38:44;;;;;;;6.35;2.85;;;;;;;22.57;100.00;101550.00;5205053;28;20430;-81
2021/08/22 11:41:16;;;;;;;4.63;2.65;;;;;;;22.78;100.00;101558.81;5199406;28;20017;-82